Time;durP1;ratioP1;P1;durP2;ratioP2;P2;SDS_P1;SDS_P2;PMS_P1;PMS_P2;Temp;Humidity;BMP_temperature;BMP_pressure;BME280_temperature;BME280_humidity;BME280_pressure;Samples;Min_cycle;Max_cycle;Signal;HPM_P1;HPM_P2
2022/11/13 00:01:20;;;;;;;20.98;12.93;;;8.00;99.90;;;;;;5044583;28;20060;-75
2022/11/13 00:03:45;;;;;;;19.77;13.02;;;8.00;99.90;;;;;;5047636;28;20048;-75
2022/11/13 00:06:12;;;;;;;24.25;13.50;;;8.00;99.90;;;;;;5047549;28;20057;-75
2022/11/13 00:08:38;;;;;;;19.75;12.80;;;8.00;99.90;;;;;;5047142;28;20100;-75
2022/11/13 00:11:07;;;;;;;24.33;13.20;;;8.00;99.90;;;;;;5045824;28;20116;-76
2022/11/13 00:13:33;;;;;;;23.17;13.65;;;8.00;99.90;;;;;;5047343;28;20385;-75
2022/11/13 00:16:02;;;;;;;26.17;13.23;;;7.90;99.90;;;;;;5045769;28;20385;-75
2022/11/13 00:18:29;;;;;;;24.27;12.98;;;8.00;99.90;;;;;;5044347;28;20104;-75
2022/11/13 00:20:57;;;;;;;21.05;11.90;;;8.00;99.90;;;;;;5045237;28;20116;-75
2022/11/13 00:23:22;;;;;;;21.73;13.13;;;7.90;99.90;;;;;;5046141;28;20032;-75
2022/11/13 00:25:48;;;;;;;21.25;13.38;;;8.00;99.90;;;;;;5046330;28;20029;-75
2022/11/13 00:28:14;;;;;;;21.48;12.75;;;8.00;99.90;;;;;;5039256;28;20393;-75
2022/11/13 00:30:39;;;;;;;27.10;13.52;;;8.00;99.90;;;;;;5042055;28;21907;-75
2022/11/13 00:33:05;;;;;;;18.40;12.30;;;8.00;99.90;;;;;;5030954;28;20026;-75
2022/11/13 00:35:32;;;;;;;22.02;13.43;;;8.00;99.90;;;;;;5043225;28;20072;-76
2022/11/13 00:37:57;;;;;;;18.05;11.63;;;8.00;99.90;;;;;;5039260;28;20026;-75
2022/11/13 00:40:23;;;;;;;21.38;12.15;;;8.00;99.90;;;;;;5037645;28;20088;-75
2022/11/13 00:42:48;;;;;;;21.77;13.13;;;8.00;99.90;;;;;;5024545;28;20029;-75
2022/11/13 00:45:14;;;;;;;20.23;12.43;;;7.90;99.90;;;;;;5025563;28;20032;-75
2022/11/13 00:47:40;;;;;;;20.27;12.20;;;8.00;99.90;;;;;;5018615;28;20036;-75
2022/11/13 00:50:05;;;;;;;23.83;12.07;;;7.90;99.90;;;;;;5029110;28;20040;-75
2022/11/13 00:52:31;;;;;;;21.17;12.55;;;7.90;99.90;;;;;;5033845;28;20053;-75
2022/11/13 00:54:56;;;;;;;19.23;13.02;;;7.80;99.90;;;;;;5026661;28;20034;-75
2022/11/13 00:57:22;;;;;;;19.88;12.85;;;7.70;99.90;;;;;;5018292;28;20517;-75
2022/11/13 00:59:47;;;;;;;20.42;13.07;;;7.60;99.90;;;;;;5030475;28;20037;-76
2022/11/13 01:02:14;;;;;;;21.98;13.13;;;7.60;99.90;;;;;;5032741;28;20100;-75
2022/11/13 01:04:41;;;;;;;19.88;13.27;;;7.50;99.90;;;;;;5033485;28;20025;-75
2022/11/13 01:07:06;;;;;;;25.10;12.93;;;7.50;99.90;;;;;;5032053;28;20466;-75
2022/11/13 01:09:32;;;;;;;21.23;13.48;;;7.40;99.90;;;;;;5032648;28;20044;-75
2022/11/13 01:11:57;;;;;;;25.20;14.10;;;7.40;99.90;;;;;;5023336;28;20508;-76
2022/11/13 01:14:23;;;;;;;25.42;13.20;;;7.30;99.90;;;;;;5030551;28;20527;-76
2022/11/13 01:16:48;;;;;;;21.35;11.65;;;7.30;99.90;;;;;;5029997;28;20044;-75
2022/11/13 01:19:14;;;;;;;21.17;13.18;;;7.20;99.90;;;;;;5025258;28;20497;-76
2022/11/13 01:21:39;;;;;;;22.00;14.02;;;7.20;99.90;;;;;;5031119;28;20044;-76
2022/11/13 01:24:05;;;;;;;22.55;12.38;;;7.20;99.90;;;;;;5018164;28;20382;-73
2022/11/13 01:26:31;;;;;;;23.17;14.15;;;7.20;99.90;;;;;;5023051;28;20088;-74
2022/11/13 01:28:58;;;;;;;22.88;13.82;;;7.20;99.90;;;;;;5030828;28;20033;-73
2022/11/13 01:31:27;;;;;;;21.60;12.82;;;7.10;99.90;;;;;;5028861;28;20143;-73
2022/11/13 01:33:53;;;;;;;25.25;13.88;;;7.20;99.90;;;;;;5013032;28;20030;-73
2022/11/13 01:36:21;;;;;;;31.20;14.50;;;7.20;99.90;;;;;;5013145;28;20022;-74
2022/11/13 01:38:48;;;;;;;19.77;12.55;;;7.20;99.90;;;;;;5029481;28;20060;-74
2022/11/13 01:41:23;;;;;;;22.98;13.30;;;7.20;99.90;;;;;;5031161;28;20037;-74
2022/11/13 01:43:50;;;;;;;22.70;13.85;;;7.20;99.90;;;;;;5031221;28;20029;-73
2022/11/13 01:46:25;;;;;;;24.42;13.68;;;7.20;99.90;;;;;;5030667;28;20038;-74
2022/11/13 01:49:29;;;;;;;22.38;13.32;;;7.30;99.90;;;;;;5030482;28;20029;-74
2022/11/13 01:51:57;;;;;;;24.85;13.35;;;7.30;99.90;;;;;;5022865;28;20045;-74
2022/11/13 01:54:27;;;;;;;20.02;13.43;;;7.30;99.90;;;;;;5011751;28;20030;-74
2022/11/13 01:56:58;;;;;;;29.15;13.70;;;7.30;99.90;;;;;;5012762;28;20501;-75
2022/11/13 01:59:29;;;;;;;25.73;14.80;;;7.30;99.90;;;;;;5017492;28;20141;-75
2022/11/13 02:01:55;;;;;;;22.20;13.95;;;7.20;99.90;;;;;;5024864;28;20417;-75
2022/11/13 02:04:22;;;;;;;23.15;14.55;;;7.20;99.90;;;;;;5020950;28;20529;-76
2022/11/13 02:06:54;;;;;;;24.95;14.73;;;7.10;99.90;;;;;;5015488;28;20084;-74
2022/11/13 02:09:24;;;;;;;23.35;15.07;;;7.10;99.90;;;;;;5030809;28;20037;-74
2022/11/13 02:11:50;;;;;;;24.65;14.43;;;7.10;99.90;;;;;;5029952;28;20438;-74
2022/11/13 02:14:18;;;;;;;24.33;14.27;;;7.10;99.90;;;;;;5030929;28;20474;-74
2022/11/13 02:16:47;;;;;;;22.85;15.05;;;7.10;99.90;;;;;;5026920;28;20418;-74
2022/11/13 02:19:35;;;;;;;22.77;15.10;;;7.00;99.90;;;;;;5027895;28;20409;-74
2022/11/13 02:22:14;;;;;;;24.88;14.90;;;7.00;99.90;;;;;;5029630;28;20029;-75
2022/11/13 02:24:42;;;;;;;24.92;15.43;;;7.00;99.90;;;;;;5012163;28;20026;-75
2022/11/13 02:27:21;;;;;;;25.38;15.18;;;6.90;99.90;;;;;;5024903;28;20069;-77
2022/11/13 02:29:46;;;;;;;27.17;16.65;;;6.90;99.90;;;;;;5016956;28;20132;-75
2022/11/13 02:32:12;;;;;;;25.20;16.45;;;6.80;99.90;;;;;;5023981;28;20025;-76
2022/11/13 02:34:37;;;;;;;24.95;15.77;;;6.80;99.90;;;;;;5029596;28;20068;-75
2022/11/13 02:37:03;;;;;;;23.42;15.27;;;6.90;99.90;;;;;;5031265;28;20064;-76
2022/11/13 02:39:28;;;;;;;28.45;16.00;;;6.90;99.90;;;;;;5029855;28;20359;-75
2022/11/13 02:41:54;;;;;;;26.98;16.38;;;6.90;99.90;;;;;;5028171;28;20025;-75
2022/11/13 02:44:19;;;;;;;23.50;14.48;;;6.80;99.90;;;;;;5027559;28;20540;-75
2022/11/13 02:46:45;;;;;;;22.00;15.40;;;6.80;99.90;;;;;;5030203;28;20025;-75
2022/11/13 02:49:10;;;;;;;23.30;15.50;;;6.80;99.90;;;;;;5023652;28;20089;-75
2022/11/13 02:51:36;;;;;;;24.67;16.48;;;6.80;99.90;;;;;;5014812;28;20390;-76
2022/11/13 02:54:02;;;;;;;24.10;15.98;;;6.80;99.90;;;;;;5020201;28;20389;-75
2022/11/13 02:56:27;;;;;;;22.40;15.07;;;6.80;99.90;;;;;;5024051;28;20824;-75
2022/11/13 02:58:53;;;;;;;26.15;16.95;;;6.80;99.90;;;;;;5028079;28;20029;-75
2022/11/13 03:01:18;;;;;;;28.95;16.38;;;6.70;99.90;;;;;;5023612;28;20079;-75
2022/11/13 03:03:44;;;;;;;26.10;15.27;;;6.70;99.90;;;;;;5030027;28;20021;-75
2022/11/13 03:06:10;;;;;;;24.30;16.90;;;6.70;99.90;;;;;;5028743;28;20040;-76
2022/11/13 03:08:35;;;;;;;24.25;15.48;;;6.70;99.90;;;;;;5028160;28;20374;-75
2022/11/13 03:11:07;;;;;;;25.38;14.82;;;6.70;99.90;;;;;;5026200;28;20040;-75
2022/11/13 03:13:33;;;;;;;26.60;16.70;;;6.80;99.90;;;;;;5025042;28;20022;-75
2022/11/13 03:16:09;;;;;;;26.25;15.57;;;6.80;99.90;;;;;;5021918;28;20163;-75
2022/11/13 03:18:34;;;;;;;26.92;15.93;;;6.80;99.90;;;;;;5024821;28;20054;-76
2022/11/13 03:21:06;;;;;;;20.95;14.95;;;6.80;99.90;;;;;;5017849;28;20417;-75
2022/11/13 03:23:31;;;;;;;21.88;14.77;;;6.80;99.90;;;;;;5021898;28;20030;-75
2022/11/13 03:26:02;;;;;;;26.67;15.90;;;6.80;99.90;;;;;;5027483;28;20060;-75
2022/11/13 03:28:28;;;;;;;21.80;14.30;;;6.80;99.90;;;;;;5029945;28;20037;-75
2022/11/13 03:30:53;;;;;;;22.52;14.57;;;6.70;99.90;;;;;;5028296;28;20107;-76
2022/11/13 03:33:19;;;;;;;22.38;14.65;;;6.70;99.90;;;;;;5028361;28;20033;-75
2022/11/13 03:35:46;;;;;;;21.67;15.13;;;6.70;99.90;;;;;;5027556;28;20056;-75
2022/11/13 03:38:11;;;;;;;24.52;14.75;;;6.60;99.90;;;;;;5027631;28;20390;-75
2022/11/13 03:40:37;;;;;;;24.13;14.80;;;6.60;99.90;;;;;;5024020;28;20038;-75
2022/11/13 03:43:02;;;;;;;26.58;15.73;;;6.50;99.90;;;;;;5021586;28;20038;-75
2022/11/13 03:45:28;;;;;;;18.08;13.23;;;6.50;99.90;;;;;;5013763;28;20033;-75
2022/11/13 03:47:53;;;;;;;22.75;13.88;;;6.40;99.90;;;;;;5024499;28;20034;-74
2022/11/13 03:50:19;;;;;;;19.52;13.50;;;6.40;99.90;;;;;;5025056;28;20034;-76
2022/11/13 03:52:44;;;;;;;22.00;13.35;;;6.30;99.90;;;;;;5028093;28;20029;-74
2022/11/13 03:55:10;;;;;;;20.48;13.23;;;6.30;99.90;;;;;;5027480;28;20033;-75
2022/11/13 03:57:35;;;;;;;20.90;12.25;;;6.20;99.90;;;;;;5024033;28;20482;-75
2022/11/13 04:00:01;;;;;;;19.58;13.43;;;6.10;99.90;;;;;;5021337;28;20037;-75
2022/11/13 04:02:26;;;;;;;22.80;12.68;;;6.10;99.90;;;;;;5029248;28;20355;-75
2022/11/13 04:04:52;;;;;;;19.55;12.82;;;6.00;99.90;;;;;;5026926;28;20034;-76
2022/11/13 04:07:17;;;;;;;27.10;14.77;;;6.00;99.90;;;;;;5029233;28;20029;-75
2022/11/13 04:09:43;;;;;;;22.33;14.68;;;6.00;99.90;;;;;;5017451;28;20075;-75
2022/11/13 04:12:08;;;;;;;21.90;13.02;;;5.90;99.90;;;;;;5020841;28;20073;-75
2022/11/13 04:14:34;;;;;;;17.63;12.57;;;5.90;99.90;;;;;;5028781;28;20033;-75
2022/11/13 04:16:59;;;;;;;21.40;12.57;;;6.00;99.90;;;;;;5018636;28;20065;-75
2022/11/13 04:19:25;;;;;;;18.63;12.07;;;5.90;99.90;;;;;;5024928;28;20045;-75
2022/11/13 04:21:50;;;;;;;19.00;12.98;;;5.90;99.90;;;;;;5030181;28;20425;-75
2022/11/13 04:24:15;;;;;;;18.40;12.50;;;5.90;99.90;;;;;;5030750;28;20056;-75
2022/11/13 04:26:41;;;;;;;17.17;12.85;;;5.90;99.90;;;;;;5031440;28;20029;-74
2022/11/13 04:29:07;;;;;;;18.85;11.95;;;5.90;99.90;;;;;;5031785;28;20557;-75
2022/11/13 04:31:32;;;;;;;19.35;11.45;;;5.90;99.90;;;;;;5024443;28;20041;-75
2022/11/13 04:33:58;;;;;;;19.48;12.05;;;5.90;99.90;;;;;;5021431;28;20058;-75
2022/11/13 04:36:23;;;;;;;19.08;11.38;;;5.80;99.90;;;;;;5028038;28;20040;-75
2022/11/13 04:38:49;;;;;;;17.35;10.95;;;5.80;99.90;;;;;;5031957;28;20030;-75
2022/11/13 04:43:58;;;;;;;16.92;10.43;;;5.80;99.90;;;;;;5021528;28;20489;-75
2022/11/13 04:46:24;;;;;;;18.50;10.65;;;5.80;99.90;;;;;;5027400;28;20029;-75
2022/11/13 04:48:49;;;;;;;16.50;9.82;;;5.80;99.90;;;;;;5022501;28;20037;-75
2022/11/13 04:51:15;;;;;;;15.65;9.63;;;5.80;99.90;;;;;;5032504;28;20037;-75
2022/11/13 04:53:40;;;;;;;16.65;9.95;;;5.80;99.90;;;;;;5032339;28;20449;-75
2022/11/13 04:56:06;;;;;;;15.90;9.20;;;5.80;99.90;;;;;;5032025;28;20044;-75
2022/11/13 04:58:31;;;;;;;17.90;9.80;;;5.80;99.90;;;;;;5032860;28;20087;-75
2022/11/13 05:00:57;;;;;;;18.30;9.70;;;5.80;99.90;;;;;;5020892;28;20037;-75
2022/11/13 05:03:22;;;;;;;14.75;10.10;;;5.90;99.90;;;;;;5020922;28;20475;-75
2022/11/13 05:05:48;;;;;;;18.90;9.32;;;5.80;99.90;;;;;;5025118;28;20038;-75
2022/11/13 05:08:13;;;;;;;12.88;8.95;;;5.80;99.90;;;;;;5029443;28;20036;-75
2022/11/13 05:10:39;;;;;;;14.95;9.07;;;5.90;99.90;;;;;;5029143;28;20116;-75
2022/11/13 05:13:04;;;;;;;14.98;8.95;;;5.90;99.90;;;;;;5027438;28;20033;-75
2022/11/13 05:15:30;;;;;;;15.32;7.97;;;5.90;99.90;;;;;;5027890;28;20036;-75
2022/11/13 05:17:56;;;;;;;14.75;8.68;;;5.90;99.90;;;;;;5022564;28;20037;-75
2022/11/13 05:20:22;;;;;;;14.45;8.38;;;5.90;99.90;;;;;;5013360;28;20022;-75
2022/11/13 05:22:47;;;;;;;15.18;9.07;;;5.90;99.90;;;;;;5017984;28;20426;-75
2022/11/13 05:25:13;;;;;;;15.68;7.97;;;5.90;99.90;;;;;;5029682;28;20041;-73
2022/11/13 05:27:38;;;;;;;15.95;9.25;;;5.90;99.90;;;;;;5017931;28;20032;-77
2022/11/13 05:30:04;;;;;;;14.27;9.82;;;5.80;99.90;;;;;;5017385;28;20611;-75
2022/11/13 05:32:31;;;;;;;15.65;9.98;;;5.80;99.90;;;;;;5033660;28;20065;-75
2022/11/13 05:34:57;;;;;;;15.68;10.55;;;5.70;99.90;;;;;;5015074;28;20022;-75
2022/11/13 05:37:22;;;;;;;17.40;10.57;;;5.60;99.90;;;;;;5017651;28;20685;-75
2022/11/13 05:39:48;;;;;;;20.80;11.07;;;5.50;99.90;;;;;;5025167;28;20088;-76
2022/11/13 05:42:14;;;;;;;16.55;10.35;;;5.40;99.90;;;;;;5021582;28;20490;-74
2022/11/13 05:44:39;;;;;;;18.73;11.25;;;5.40;99.90;;;;;;5028800;28;20457;-75
2022/11/13 05:47:05;;;;;;;16.77;11.07;;;5.30;99.90;;;;;;5031117;28;20378;-75
2022/11/13 05:49:30;;;;;;;17.30;10.98;;;5.20;99.90;;;;;;5018326;28;20378;-75
2022/11/13 05:51:56;;;;;;;17.20;11.20;;;5.20;99.90;;;;;;5030170;28;20049;-76
2022/11/13 05:54:21;;;;;;;18.70;11.27;;;5.10;99.90;;;;;;5032271;28;20474;-75
2022/11/13 05:56:47;;;;;;;22.02;11.82;;;5.10;99.90;;;;;;5030743;28;20037;-75
2022/11/13 05:59:13;;;;;;;19.15;12.27;;;5.10;99.90;;;;;;5032628;28;20025;-75
2022/11/13 06:01:39;;;;;;;20.40;12.00;;;5.10;99.90;;;;;;5030356;28;20025;-75
2022/11/13 06:04:06;;;;;;;18.48;12.85;;;5.10;99.90;;;;;;5022584;28;20068;-74
2022/11/13 06:06:33;;;;;;;19.40;13.65;;;5.00;99.90;;;;;;5024426;28;20084;-75
2022/11/13 06:09:00;;;;;;;20.27;13.43;;;4.90;99.90;;;;;;5028709;28;20037;-76
2022/11/13 06:11:28;;;;;;;26.52;14.30;;;4.90;99.90;;;;;;5026174;28;20041;-75
2022/11/13 06:13:54;;;;;;;25.73;15.00;;;4.90;99.90;;;;;;5025498;28;20037;-75
2022/11/13 06:16:26;;;;;;;23.15;14.32;;;4.90;99.90;;;;;;5025447;28;20350;-75
2022/11/13 06:18:57;;;;;;;22.27;15.18;;;4.90;99.90;;;;;;5014462;28;20486;-75
2022/11/13 06:21:24;;;;;;;19.83;14.15;;;4.90;99.90;;;;;;5016395;28;20037;-75
2022/11/13 06:23:50;;;;;;;27.10;13.18;;;4.90;99.90;;;;;;5030067;28;20029;-75
2022/11/13 06:26:21;;;;;;;20.92;14.32;;;4.90;99.90;;;;;;5013447;28;20434;-74
2022/11/13 06:28:47;;;;;;;25.52;14.50;;;4.80;99.90;;;;;;5012292;28;20502;-75
2022/11/13 06:31:14;;;;;;;21.08;13.48;;;4.70;99.90;;;;;;5022997;28;20046;-75
2022/11/13 06:33:41;;;;;;;18.65;12.88;;;4.60;99.90;;;;;;5023550;28;20021;-75
2022/11/13 06:36:20;;;;;;;22.38;13.70;;;4.60;99.90;;;;;;5025550;28;20045;-75
2022/11/13 06:38:49;;;;;;;23.42;14.98;;;4.60;99.90;;;;;;5028835;28;20026;-75
2022/11/13 06:41:16;;;;;;;22.00;13.90;;;4.60;99.90;;;;;;5013918;28;20397;-74
2022/11/13 06:43:42;;;;;;;22.95;15.88;;;4.50;99.90;;;;;;5025026;28;20037;-75
2022/11/13 06:46:16;;;;;;;27.42;16.48;;;4.50;99.90;;;;;;5028834;28;20160;-75
2022/11/13 06:48:42;;;;;;;26.23;16.55;;;4.40;99.90;;;;;;5031551;28;20021;-74
2022/11/13 06:51:15;;;;;;;25.60;16.65;;;4.40;99.90;;;;;;5025426;28;20151;-75
2022/11/13 06:53:41;;;;;;;25.27;17.67;;;4.40;99.90;;;;;;5031473;28;20017;-75
2022/11/13 06:56:07;;;;;;;21.45;14.93;;;4.40;99.90;;;;;;5024529;28;20030;-75
2022/11/13 06:58:32;;;;;;;24.58;16.77;;;4.40;99.90;;;;;;5017050;28;20553;-76
2022/11/13 07:01:08;;;;;;;26.45;17.63;;;4.40;99.90;;;;;;5016886;28;20100;-76
2022/11/13 07:03:34;;;;;;;24.48;16.40;;;4.40;99.90;;;;;;5026024;28;20494;-75
2022/11/13 07:06:08;;;;;;;26.65;16.65;;;4.40;99.90;;;;;;5030253;28;20041;-75
2022/11/13 07:08:34;;;;;;;27.17;17.13;;;4.30;99.90;;;;;;5029023;28;20025;-76
2022/11/13 07:11:00;;;;;;;24.83;16.23;;;4.30;99.90;;;;;;5029536;28;20116;-75
2022/11/13 07:13:27;;;;;;;28.10;18.50;;;4.30;99.90;;;;;;5026466;28;20117;-75
2022/11/13 07:15:53;;;;;;;26.65;17.63;;;4.30;99.90;;;;;;5025963;28;20029;-75
2022/11/13 07:18:21;;;;;;;23.05;16.48;;;4.30;99.90;;;;;;5029267;28;20104;-75
2022/11/13 07:20:47;;;;;;;25.58;17.13;;;4.30;99.90;;;;;;5031243;28;20021;-75
2022/11/13 07:23:15;;;;;;;26.08;18.13;;;4.20;99.90;;;;;;5030464;28;20121;-75
2022/11/13 07:25:40;;;;;;;29.08;18.42;;;4.30;99.90;;;;;;5021104;28;20084;-75
2022/11/13 07:28:06;;;;;;;27.40;17.55;;;4.30;99.90;;;;;;5021734;28;20041;-76
2022/11/13 07:30:31;;;;;;;26.38;17.90;;;4.30;99.90;;;;;;5025567;28;20489;-75
2022/11/13 07:33:01;;;;;;;31.60;20.88;;;4.40;99.90;;;;;;5025623;28;20067;-74
2022/11/13 07:35:26;;;;;;;29.45;20.17;;;4.40;99.90;;;;;;5022254;28;20486;-74
2022/11/13 07:37:55;;;;;;;27.38;19.92;;;4.50;99.90;;;;;;5026316;28;20051;-75
2022/11/13 07:40:20;;;;;;;28.77;20.00;;;4.60;99.90;;;;;;5016045;28;20029;-76
2022/11/13 07:42:45;;;;;;;27.67;19.25;;;4.70;99.90;;;;;;5022482;28;20053;-74
2022/11/13 07:45:11;;;;;;;28.63;19.58;;;4.80;99.90;;;;;;5016750;28;20394;-75
2022/11/13 07:47:37;;;;;;;30.35;19.50;;;4.80;99.90;;;;;;5024672;28;20033;-75
2022/11/13 07:50:03;;;;;;;34.40;20.95;;;4.90;99.90;;;;;;5019078;28;20025;-75
2022/11/13 07:52:28;;;;;;;28.00;18.88;;;5.00;99.90;;;;;;5027567;28;20045;-75
2022/11/13 07:54:54;;;;;;;23.95;17.40;;;5.10;99.90;;;;;;5014663;28;20030;-75
2022/11/13 07:57:21;;;;;;;28.35;18.73;;;5.20;99.90;;;;;;5030604;28;20079;-75
2022/11/13 07:59:47;;;;;;;25.10;17.65;;;5.30;99.90;;;;;;5015931;28;20083;-76
2022/11/13 08:02:14;;;;;;;26.45;18.35;;;5.40;99.90;;;;;;5033295;28;20378;-75
2022/11/13 08:04:40;;;;;;;22.42;16.65;;;5.50;99.90;;;;;;5031492;28;20028;-75
2022/11/13 08:07:07;;;;;;;26.23;18.08;;;5.50;99.90;;;;;;5022706;28;20022;-75
2022/11/13 08:09:33;;;;;;;26.30;17.70;;;5.60;99.90;;;;;;5023686;28;20025;-75
2022/11/13 08:11:58;;;;;;;23.05;17.38;;;5.80;99.90;;;;;;5024234;28;20037;-75
2022/11/13 08:14:24;;;;;;;25.10;17.33;;;5.90;99.90;;;;;;5025543;28;20037;-75
2022/11/13 08:16:49;;;;;;;22.55;16.50;;;6.00;99.90;;;;;;5023341;28;20277;-75
2022/11/13 08:19:15;;;;;;;24.80;16.75;;;6.10;99.90;;;;;;5031178;28;20026;-75
2022/11/13 08:21:40;;;;;;;24.00;17.35;;;6.20;99.90;;;;;;5026046;28;20120;-75
2022/11/13 08:24:06;;;;;;;23.58;16.10;;;6.30;99.90;;;;;;5027839;28;20029;-75
2022/11/13 08:26:31;;;;;;;24.15;17.50;;;6.30;99.90;;;;;;5027354;28;20029;-75
2022/11/13 08:28:57;;;;;;;22.48;16.10;;;6.40;99.90;;;;;;5025837;28;20033;-75
2022/11/13 08:31:22;;;;;;;23.08;15.60;;;6.50;99.90;;;;;;5026451;28;20041;-75
2022/11/13 08:33:48;;;;;;;23.50;15.38;;;6.60;99.90;;;;;;5027072;28;20108;-75
2022/11/13 08:36:13;;;;;;;24.45;16.38;;;6.60;99.90;;;;;;5024066;28;20121;-75
2022/11/13 08:38:39;;;;;;;20.25;13.75;;;6.80;99.90;;;;;;5028528;28;20033;-75
2022/11/13 08:41:05;;;;;;;26.35;16.35;;;6.90;99.90;;;;;;5026291;28;20025;-75
2022/11/13 08:43:31;;;;;;;23.63;14.70;;;7.00;99.90;;;;;;5022774;28;20032;-75
2022/11/13 08:45:57;;;;;;;21.33;16.00;;;7.10;99.90;;;;;;5025831;28;20033;-76
2022/11/13 08:48:23;;;;;;;21.60;14.63;;;7.20;99.90;;;;;;5027970;28;20064;-75
2022/11/13 08:50:56;;;;;;;22.75;15.95;;;7.30;99.90;;;;;;5027119;28;20034;-75
2022/11/13 08:53:22;;;;;;;19.13;14.85;;;7.40;99.90;;;;;;5033036;28;20041;-75
2022/11/13 08:55:48;;;;;;;20.08;14.07;;;7.50;99.90;;;;;;5021794;28;20025;-75
2022/11/13 08:58:14;;;;;;;22.33;13.77;;;7.60;99.90;;;;;;5032554;28;20039;-75
2022/11/13 09:00:39;;;;;;;18.73;14.10;;;7.70;99.90;;;;;;5018979;28;20029;-76
2022/11/13 09:03:05;;;;;;;21.35;14.70;;;7.80;99.90;;;;;;5024300;28;20061;-75
2022/11/13 09:05:31;;;;;;;21.23;15.18;;;7.90;99.90;;;;;;5023040;28;20030;-75
2022/11/13 09:07:59;;;;;;;21.67;14.48;;;8.00;99.90;;;;;;5019475;28;20029;-72
2022/11/13 09:10:25;;;;;;;21.65;13.65;;;8.10;99.90;;;;;;5025236;28;20033;-74
2022/11/13 09:13:02;;;;;;;19.23;13.48;;;8.20;99.90;;;;;;5019199;28;20108;-74
2022/11/13 09:15:30;;;;;;;16.33;12.15;;;8.30;99.90;;;;;;5020699;28;20094;-74
2022/11/13 09:18:00;;;;;;;17.50;12.07;;;8.40;99.90;;;;;;5022217;28;20065;-74
2022/11/13 09:20:27;;;;;;;16.80;12.32;;;8.50;99.90;;;;;;5023770;28;20037;-74
2022/11/13 09:23:01;;;;;;;17.50;12.13;;;8.60;99.90;;;;;;5023115;28;20104;-74
2022/11/13 09:25:29;;;;;;;16.92;11.52;;;8.70;99.90;;;;;;5023804;28;20155;-74
2022/11/13 09:27:58;;;;;;;17.20;12.70;;;8.80;99.90;;;;;;5020617;28;20030;-74
2022/11/13 09:30:24;;;;;;;17.90;11.77;;;8.90;99.90;;;;;;5023564;28;20034;-74
2022/11/13 09:32:56;;;;;;;16.33;11.68;;;9.00;99.90;;;;;;5019552;28;20393;-74
2022/11/13 09:35:35;;;;;;;18.95;12.23;;;9.10;99.90;;;;;;5025207;28;20026;-74
2022/11/13 09:38:06;;;;;;;15.88;11.88;;;9.20;99.90;;;;;;5022140;28;20035;-75
2022/11/13 09:40:45;;;;;;;18.08;11.88;;;9.30;99.90;;;;;;5022758;28;20034;-74
2022/11/13 09:43:51;;;;;;;16.65;11.93;;;9.40;99.90;;;;;;5019976;28;20721;-74
2022/11/13 09:46:39;;;;;;;14.13;10.68;;;9.50;99.90;;;;;;5023055;28;20113;-74
2022/11/13 09:49:15;;;;;;;16.73;10.85;;;9.60;99.90;;;;;;5016512;28;20056;-74
2022/11/13 09:51:48;;;;;;;16.40;11.13;;;9.60;99.90;;;;;;5023582;28;20037;-74
2022/11/13 09:54:14;;;;;;;14.60;10.30;;;9.70;99.90;;;;;;5022723;28;20025;-75
2022/11/13 09:57:13;;;;;;;14.57;10.70;;;9.80;99.90;;;;;;5018068;28;20014;-75
2022/11/13 09:59:51;;;;;;;18.98;11.80;;;9.90;99.90;;;;;;5023010;28;20021;-73
2022/11/13 10:02:20;;;;;;;17.80;11.13;;;10.00;99.90;;;;;;5018818;28;20028;-75
2022/11/13 10:05:16;;;;;;;15.32;11.27;;;10.10;99.90;;;;;;5019106;28;20061;-76
2022/11/13 10:08:06;;;;;;;15.52;10.85;;;10.10;99.90;;;;;;5019691;28;20021;-75
2022/11/13 10:10:46;;;;;;;13.73;11.00;;;10.30;99.90;;;;;;5017886;28;20056;-75
2022/11/13 10:13:17;;;;;;;17.15;10.85;;;10.30;99.90;;;;;;5015395;28;20049;-73
2022/11/13 10:15:48;;;;;;;13.68;10.52;;;10.40;99.90;;;;;;5015990;28;20474;-74
2022/11/13 10:18:26;;;;;;;13.52;10.15;;;10.50;99.90;;;;;;5023406;28;20108;-74
2022/11/13 10:20:56;;;;;;;15.80;10.88;;;10.60;99.90;;;;;;5019652;28;20470;-74
2022/11/13 10:23:33;;;;;;;15.90;10.60;;;10.70;99.90;;;;;;5019662;28;20105;-74
2022/11/13 10:26:14;;;;;;;15.80;10.95;;;10.80;99.90;;;;;;5020019;28;20057;-74
2022/11/13 10:28:40;;;;;;;14.77;10.50;;;10.90;99.90;;;;;;5014021;28;20662;-74
2022/11/13 10:31:09;;;;;;;13.75;10.55;;;11.00;99.90;;;;;;5013345;28;20092;-74
2022/11/13 10:33:35;;;;;;;13.57;9.88;;;11.00;99.90;;;;;;5025845;28;20014;-74
2022/11/13 10:36:25;;;;;;;14.90;9.80;;;11.10;99.90;;;;;;5024503;28;20028;-74
2022/11/13 10:39:01;;;;;;;13.50;9.55;;;11.20;99.90;;;;;;5027828;28;20036;-74
2022/11/13 10:41:26;;;;;;;14.10;10.00;;;11.20;99.90;;;;;;5020518;28;20027;-74
2022/11/13 10:43:56;;;;;;;14.07;9.68;;;11.30;99.90;;;;;;5026247;28;20366;-76
2022/11/13 10:46:25;;;;;;;13.48;10.18;;;11.40;99.90;;;;;;5013636;28;20079;-75
2022/11/13 10:48:51;;;;;;;11.15;9.32;;;11.40;99.90;;;;;;5022208;28;20029;-75
2022/11/13 10:51:28;;;;;;;15.55;9.57;;;11.40;99.90;;;;;;5023530;28;20049;-75
2022/11/13 10:53:55;;;;;;;12.52;9.30;;;11.50;99.90;;;;;;5017044;28;20109;-74
2022/11/13 10:56:33;;;;;;;13.65;9.90;;;11.60;99.90;;;;;;5017561;28;20017;-77
2022/11/13 10:59:16;;;;;;;12.23;9.80;;;11.60;99.90;;;;;;5025371;28;20083;-77
2022/11/13 11:01:45;;;;;;;13.05;9.57;;;11.70;99.90;;;;;;5022726;28;20040;-76
2022/11/13 11:04:18;;;;;;;15.02;10.10;;;11.70;99.90;;;;;;5015098;28;20304;-76
2022/11/13 11:06:44;;;;;;;14.77;10.73;;;11.80;99.90;;;;;;5021536;28;20092;-75
2022/11/13 11:09:12;;;;;;;13.07;9.80;;;11.80;99.90;;;;;;5018153;28;20056;-74
2022/11/13 11:14:28;;;;;;;15.35;10.63;;;12.00;99.90;;;;;;5022857;28;20116;-76
2022/11/13 11:16:56;;;;;;;14.55;9.77;;;12.10;99.90;;;;;;5022990;28;20037;-74
2022/11/13 11:19:26;;;;;;;12.95;9.60;;;12.20;99.90;;;;;;5029304;28;20112;-74
2022/11/13 11:22:05;;;;;;;14.80;9.18;;;12.30;99.90;;;;;;5022676;28;20024;-74
2022/11/13 11:24:36;;;;;;;13.05;9.60;;;12.40;99.90;;;;;;5024173;28;20390;-74
2022/11/13 11:27:14;;;;;;;15.85;9.38;;;12.50;99.90;;;;;;5029453;28;20068;-76
2022/11/13 11:29:50;;;;;;;14.73;9.02;;;12.70;99.90;;;;;;5030588;28;20366;-75
2022/11/13 11:32:30;;;;;;;11.15;8.10;;;12.80;99.90;;;;;;5023042;28;20106;-76
2022/11/13 11:35:04;;;;;;;14.25;8.50;;;12.90;99.90;;;;;;5028901;28;20037;-76
2022/11/13 11:37:42;;;;;;;10.95;8.52;;;13.00;99.90;;;;;;5028779;28;20065;-75
2022/11/13 11:40:54;;;;;;;13.05;8.57;;;13.10;99.90;;;;;;5030091;28;20061;-75
2022/11/13 11:43:38;;;;;;;12.05;8.90;;;13.20;99.90;;;;;;4989442;28;20122;-76
2022/11/13 11:46:04;;;;;;;14.93;9.23;;;13.20;99.90;;;;;;5021650;28;20049;-76
2022/11/13 11:48:31;;;;;;;13.93;9.75;;;13.20;99.90;;;;;;5022537;28;20029;-76
2022/11/13 11:51:30;;;;;;;13.05;9.45;;;13.30;99.90;;;;;;5026030;28;20029;-76
2022/11/13 11:54:01;;;;;;;13.80;9.57;;;13.40;99.90;;;;;;5018221;28;20050;-75
2022/11/13 11:56:43;;;;;;;13.47;9.23;;;13.40;99.90;;;;;;5026761;28;20056;-76
2022/11/13 11:59:30;;;;;;;11.57;8.35;;;13.40;99.90;;;;;;5026294;28;20736;-75
2022/11/13 12:02:08;;;;;;;15.00;8.27;;;13.50;99.90;;;;;;5019991;28;20038;-74
2022/11/13 12:05:16;;;;;;;12.02;8.80;;;13.50;99.90;;;;;;5019083;28;20029;-74
2022/11/13 12:08:06;;;;;;;9.57;7.32;;;13.60;99.90;;;;;;5016241;28;20466;-74
2022/11/13 12:10:55;;;;;;;9.07;7.20;;;13.60;99.90;;;;;;5018462;28;20046;-74
2022/11/13 12:13:35;;;;;;;8.75;6.40;;;13.70;99.90;;;;;;5015169;28;20033;-74
2022/11/13 12:16:13;;;;;;;9.98;6.60;;;13.90;99.90;;;;;;5021755;28;20386;-74
2022/11/13 12:18:45;;;;;;;8.63;5.18;;;14.00;99.90;;;;;;5018728;28;20021;-74
2022/11/13 12:21:23;;;;;;;7.53;5.37;;;14.20;99.90;;;;;;5019157;28;20512;-74
2022/11/13 12:24:17;;;;;;;7.75;3.63;;;14.30;99.90;;;;;;5017053;28;20522;-74
2022/11/13 12:26:46;;;;;;;5.68;2.50;;;14.30;99.90;;;;;;5014350;28;20022;-74
2022/11/13 12:29:29;;;;;;;4.60;2.13;;;14.40;99.90;;;;;;5016543;28;20030;-74
2022/11/13 12:32:11;;;;;;;3.67;1.75;;;14.60;99.90;;;;;;5016234;28;20137;-73
2022/11/13 12:34:42;;;;;;;4.53;1.73;;;14.70;99.90;;;;;;5022603;28;20025;-74
2022/11/13 12:37:14;;;;;;;2.80;1.23;;;14.70;99.90;;;;;;5029950;28;20299;-74
2022/11/13 12:39:59;;;;;;;3.28;1.63;;;14.80;99.90;;;;;;5028417;28;20026;-74
2022/11/13 12:42:53;;;;;;;4.20;1.38;;;14.90;99.90;;;;;;5017766;28;20548;-75
2022/11/13 12:45:33;;;;;;;4.80;1.33;;;15.00;99.90;;;;;;5026863;28;20040;-74
2022/11/13 12:48:35;;;;;;;2.85;0.95;;;15.10;99.90;;;;;;5019713;28;20025;-74
2022/11/13 12:51:06;;;;;;;2.45;1.33;;;15.10;99.90;;;;;;5027299;28;20551;-74
2022/11/13 12:53:52;;;;;;;4.93;1.10;;;15.20;99.90;;;;;;5032023;28;20033;-74
2022/11/13 12:56:24;;;;;;;5.45;1.40;;;15.30;99.90;;;;;;5023094;28;20041;-74